Search for airport 
image banner adimage banner adimage banner ad
image banner ad

KIPL - Imperial County

Located in Imperial, United States

ICAO - IPL, IATA - IPL

Data provided by Airmate  

General information

Coordinates: N32°50'3" W115°34'44"
Elevation is -54 feet MSL.
Magnetic variation is 14° East
View others Airports in California

Operational data

Special qualification required
Current time UTC:
Current local time:
Weather
METAR: KIPL 141053Z AUTO 25004KT 10SM CLR 23/16 A2973 RMK AO2 SLP069 T02280161 $
TAF: KIPL 140530Z 1406/1506 24005KT P6SM SKC FM141000 14004KT P6SM SKC
View NOTAMs / SUP AIP / TFR affecting this airport [VIEW]
Communications frequencies: [VIEW]

Runways:

RWY identifierQFULength (ft)Width (ft)SurfaceLDA (ft)
0890°450175ASPH4501
26270°450175ASPH4501
14153°5308100ASPH5304
32333°5308100ASPH5304

Airport contact information

Address: Imperial United States

Other aviation service providers

Flight schools

Imperial Sky Aviation, Llc

Imperial Sky Aviation, Llc

Satellite view of KIPL